Dushanbe Airport
UTDD : now visible

Airfield :











YOU CAN JOIN US ON...

 
LOGIN :

Register | Disclaimer

   EN    FR    IT 

 









Legend :    VFR   Marginal VFR   IFR   Intensive IFR   Very Intensive IFR
Visi :
Ceiling :
>= 8 km
>= 3000ft
5 to 8 km
1000 to 3000 ft
1500m to 5 km
500 to 1000 ft
800 to 1500m
200 to 500 ft
< 800m
< 200 ft
Symbols :   Thunderstorms  Fog  Heavy snow  Heavy precipitations  Wind > 20 kt






- Airport Elevation : 2575 ft
- IATA code : DYU


UTDD - Dushanbe

CURRENT METAR :
  • 201030Z 13004MPS 100V170 9999 NSC 14/M03 Q1018 R09/D NOSIG RMK QFE695/0927

EXPIRED METARs :
  • 201000Z 13003MPS 090V220 9999 NSC 13/M05 Q1018 R09/D NOSIG RMK QFE695/0927
  • 200930Z VRB02MPS 9999 NSC 14/M04 Q1019 R09/D NOSIG RMK QFE696/0927
  • 200900Z 12003MPS 9999 NSC 13/M05 Q1019 R09/D NOSIG RMK QFE696/0928
  • 200830Z VRB01MPS 9999 NSC 12/M04 Q1020 R09/D NOSIG RMK QFE696/0929
  • 200800Z VRB02MPS 9999 NSC 11/M03 Q1021 R09/CLRD// NOSIG RMK QFE697/0929

TAF TAF UTDD
Valid from the 20 at 10:00 until the 20 at 22:00 UTC


200900Z 2010/2022 11005MPS 6000 FEW066 SCT110
TEMPO 2010/2013 VRB02MPS
BECMG 2013/2015 VRB02MPS



MET'MAP, your aeronautical weather chart ! - Copyright ORBIFLY December 2007 - Disclaimer

ORBIFLY MET'MAP TEAM :

Programming & Development : Alexandra Zaïnal
Concept & original design : Baudouin d'Aumeries
Assistance for programming : Marc-Olivier Méhu
Technical & hardware support : Manuel Goepfert

Contact : metmap@orbifly.com




SOURCES & CREDITS :

   NOAA       Earth
Advisory